sensor_id;sensor_type;location;lat;lon;timestamp;P1;durP1;ratioP1;P2;durP2;ratioP2
3085;SDS011;52812;48.960;9.108;2023-03-23T00:01:22;2.43;;;1.50;;
3085;SDS011;52812;48.960;9.108;2023-03-23T00:03:51;1.47;;;1.37;;
3085;SDS011;52812;48.960;9.108;2023-03-23T00:06:19;1.60;;;1.50;;
3085;SDS011;52812;48.960;9.108;2023-03-23T00:08:47;2.03;;;1.90;;
3085;SDS011;52812;48.960;9.108;2023-03-23T00:11:18;1.60;;;1.50;;
3085;SDS011;52812;48.960;9.108;2023-03-23T00:13:46;1.77;;;1.50;;
3085;SDS011;52812;48.960;9.108;2023-03-23T00:16:16;1.90;;;1.47;;
3085;SDS011;52812;48.960;9.108;2023-03-23T00:18:53;2.30;;;1.60;;
3085;SDS011;52812;48.960;9.108;2023-03-23T00:21:20;1.57;;;1.40;;
3085;SDS011;52812;48.960;9.108;2023-03-23T00:23:50;2.10;;;1.60;;
3085;SDS011;52812;48.960;9.108;2023-03-23T00:26:16;1.57;;;1.40;;
3085;SDS011;52812;48.960;9.108;2023-03-23T00:28:42;1.47;;;1.37;;
3085;SDS011;52812;48.960;9.108;2023-03-23T00:31:08;2.80;;;2.00;;
3085;SDS011;52812;48.960;9.108;2023-03-23T00:33:35;2.00;;;1.70;;
3085;SDS011;52812;48.960;9.108;2023-03-23T00:36:06;1.60;;;1.50;;
3085;SDS011;52812;48.960;9.108;2023-03-23T00:38:33;2.47;;;1.70;;
3085;SDS011;52812;48.960;9.108;2023-03-23T00:41:00;4.00;;;1.97;;
3085;SDS011;52812;48.960;9.108;2023-03-23T00:43:29;1.70;;;1.60;;
3085;SDS011;52812;48.960;9.108;2023-03-23T00:45:55;1.50;;;1.40;;
3085;SDS011;52812;48.960;9.108;2023-03-23T00:48:25;1.70;;;1.60;;
3085;SDS011;52812;48.960;9.108;2023-03-23T00:50:52;1.80;;;1.67;;
3085;SDS011;52812;48.960;9.108;2023-03-23T00:53:18;4.80;;;2.20;;
3085;SDS011;52812;48.960;9.108;2023-03-23T00:55:44;2.20;;;1.60;;
3085;SDS011;52812;48.960;9.108;2023-03-23T00:58:11;1.50;;;1.40;;
3085;SDS011;52812;48.960;9.108;2023-03-23T01:00:37;2.57;;;1.70;;
3085;SDS011;52812;48.960;9.108;2023-03-23T01:03:04;1.83;;;1.67;;
3085;SDS011;52812;48.960;9.108;2023-03-23T01:05:34;1.97;;;1.77;;
3085;SDS011;52812;48.960;9.108;2023-03-23T01:08:00;3.20;;;1.73;;
3085;SDS011;52812;48.960;9.108;2023-03-23T01:10:27;1.70;;;1.60;;
3085;SDS011;52812;48.960;9.108;2023-03-23T01:12:53;2.07;;;1.70;;
3085;SDS011;52812;48.960;9.108;2023-03-23T01:15:20;2.07;;;1.63;;
3085;SDS011;52812;48.960;9.108;2023-03-23T01:17:46;3.10;;;1.70;;
3085;SDS011;52812;48.960;9.108;2023-03-23T01:20:13;1.90;;;1.60;;
3085;SDS011;52812;48.960;9.108;2023-03-23T01:22:40;1.77;;;1.60;;
3085;SDS011;52812;48.960;9.108;2023-03-23T01:25:06;2.10;;;1.90;;
3085;SDS011;52812;48.960;9.108;2023-03-23T01:27:33;3.40;;;1.77;;
3085;SDS011;52812;48.960;9.108;2023-03-23T01:29:59;2.17;;;1.80;;
3085;SDS011;52812;48.960;9.108;2023-03-23T01:32:24;2.00;;;1.80;;
3085;SDS011;52812;48.960;9.108;2023-03-23T01:34:50;2.10;;;1.87;;
3085;SDS011;52812;48.960;9.108;2023-03-23T01:37:16;1.90;;;1.70;;
3085;SDS011;52812;48.960;9.108;2023-03-23T01:39:41;1.90;;;1.70;;
3085;SDS011;52812;48.960;9.108;2023-03-23T01:42:10;2.70;;;1.77;;
3085;SDS011;52812;48.960;9.108;2023-03-23T01:47:02;4.90;;;1.90;;
3085;SDS011;52812;48.960;9.108;2023-03-23T01:49:29;2.00;;;1.80;;
3085;SDS011;52812;48.960;9.108;2023-03-23T01:52:04;2.60;;;2.00;;
3085;SDS011;52812;48.960;9.108;2023-03-23T01:54:33;2.27;;;1.97;;
3085;SDS011;52812;48.960;9.108;2023-03-23T01:57:11;2.13;;;1.90;;
3085;SDS011;52812;48.960;9.108;2023-03-23T01:59:39;2.60;;;1.97;;
3085;SDS011;52812;48.960;9.108;2023-03-23T02:02:08;2.17;;;1.97;;
3085;SDS011;52812;48.960;9.108;2023-03-23T02:04:35;2.30;;;2.10;;
3085;SDS011;52812;48.960;9.108;2023-03-23T02:07:01;2.47;;;1.90;;
3085;SDS011;52812;48.960;9.108;2023-03-23T02:09:28;2.07;;;1.87;;
3085;SDS011;52812;48.960;9.108;2023-03-23T02:11:54;2.30;;;2.10;;
3085;SDS011;52812;48.960;9.108;2023-03-23T02:14:21;2.27;;;1.90;;
3085;SDS011;52812;48.960;9.108;2023-03-23T02:23:05;2.33;;;2.13;;
3085;SDS011;52812;48.960;9.108;2023-03-23T02:36:39;2.20;;;2.00;;
3085;SDS011;52812;48.960;9.108;2023-03-23T02:39:33;4.10;;;1.87;;
3085;SDS011;52812;48.960;9.108;2023-03-23T02:42:10;4.90;;;2.10;;
3085;SDS011;52812;48.960;9.108;2023-03-23T02:44:40;2.30;;;2.10;;
3085;SDS011;52812;48.960;9.108;2023-03-23T02:47:14;2.60;;;2.20;;
3085;SDS011;52812;48.960;9.108;2023-03-23T02:49:44;3.33;;;1.90;;
3085;SDS011;52812;48.960;9.108;2023-03-23T02:52:15;2.83;;;2.20;;
3085;SDS011;52812;48.960;9.108;2023-03-23T02:54:44;2.50;;;2.10;;
3085;SDS011;52812;48.960;9.108;2023-03-23T02:57:12;3.70;;;2.07;;
3085;SDS011;52812;48.960;9.108;2023-03-23T02:59:38;2.70;;;1.73;;
3085;SDS011;52812;48.960;9.108;2023-03-23T03:02:09;2.70;;;2.13;;
3085;SDS011;52812;48.960;9.108;2023-03-23T03:04:40;2.17;;;1.90;;
3085;SDS011;52812;48.960;9.108;2023-03-23T03:07:15;2.53;;;2.13;;
3085;SDS011;52812;48.960;9.108;2023-03-23T03:12:55;2.90;;;2.10;;
3085;SDS011;52812;48.960;9.108;2023-03-23T03:15:29;3.47;;;2.23;;
3085;SDS011;52812;48.960;9.108;2023-03-23T03:18:05;2.60;;;2.40;;
3085;SDS011;52812;48.960;9.108;2023-03-23T03:20:40;4.07;;;2.30;;
3085;SDS011;52812;48.960;9.108;2023-03-23T03:23:13;2.50;;;2.30;;
3085;SDS011;52812;48.960;9.108;2023-03-23T03:25:40;3.30;;;2.50;;
3085;SDS011;52812;48.960;9.108;2023-03-23T03:28:13;4.27;;;2.23;;
3085;SDS011;52812;48.960;9.108;2023-03-23T03:30:46;4.97;;;2.60;;
3085;SDS011;52812;48.960;9.108;2023-03-23T03:33:16;3.30;;;2.43;;
3085;SDS011;52812;48.960;9.108;2023-03-23T03:35:45;3.40;;;2.60;;
3085;SDS011;52812;48.960;9.108;2023-03-23T03:38:11;3.47;;;2.50;;
3085;SDS011;52812;48.960;9.108;2023-03-23T03:40:37;2.57;;;2.37;;
3085;SDS011;52812;48.960;9.108;2023-03-23T03:43:04;4.03;;;2.40;;
3085;SDS011;52812;48.960;9.108;2023-03-23T03:45:30;5.57;;;2.63;;
3085;SDS011;52812;48.960;9.108;2023-03-23T03:47:56;4.60;;;2.23;;
3085;SDS011;52812;48.960;9.108;2023-03-23T03:50:21;3.10;;;2.13;;
3085;SDS011;52812;48.960;9.108;2023-03-23T03:52:48;4.83;;;2.47;;
3085;SDS011;52812;48.960;9.108;2023-03-23T03:55:13;2.60;;;2.20;;
3085;SDS011;52812;48.960;9.108;2023-03-23T03:57:39;3.40;;;2.30;;
3085;SDS011;52812;48.960;9.108;2023-03-23T04:00:07;3.40;;;2.50;;
3085;SDS011;52812;48.960;9.108;2023-03-23T04:02:40;2.97;;;2.37;;
3085;SDS011;52812;48.960;9.108;2023-03-23T04:05:07;2.87;;;2.20;;
3085;SDS011;52812;48.960;9.108;2023-03-23T04:07:34;3.43;;;2.50;;
3085;SDS011;52812;48.960;9.108;2023-03-23T04:10:03;2.57;;;2.00;;
3085;SDS011;52812;48.960;9.108;2023-03-23T04:12:30;2.40;;;2.20;;
3085;SDS011;52812;48.960;9.108;2023-03-23T04:14:56;3.50;;;2.40;;
3085;SDS011;52812;48.960;9.108;2023-03-23T04:17:22;2.53;;;2.23;;
3085;SDS011;52812;48.960;9.108;2023-03-23T04:19:51;3.77;;;2.23;;
3085;SDS011;52812;48.960;9.108;2023-03-23T04:22:17;2.67;;;2.47;;
3085;SDS011;52812;48.960;9.108;2023-03-23T04:24:43;3.40;;;2.23;;
3085;SDS011;52812;48.960;9.108;2023-03-23T04:27:08;4.23;;;2.30;;
3085;SDS011;52812;48.960;9.108;2023-03-23T04:29:34;5.10;;;2.30;;
3085;SDS011;52812;48.960;9.108;2023-03-23T04:31:59;2.60;;;2.23;;
3085;SDS011;52812;48.960;9.108;2023-03-23T04:34:26;2.87;;;2.50;;
3085;SDS011;52812;48.960;9.108;2023-03-23T04:36:52;2.23;;;2.03;;
3085;SDS011;52812;48.960;9.108;2023-03-23T04:39:18;2.90;;;2.30;;
3085;SDS011;52812;48.960;9.108;2023-03-23T04:41:44;2.23;;;2.03;;
3085;SDS011;52812;48.960;9.108;2023-03-23T04:44:11;2.40;;;2.13;;
3085;SDS011;52812;48.960;9.108;2023-03-23T04:46:42;4.23;;;2.10;;
3085;SDS011;52812;48.960;9.108;2023-03-23T04:49:10;2.33;;;2.13;;
3085;SDS011;52812;48.960;9.108;2023-03-23T04:51:36;2.13;;;1.93;;
3085;SDS011;52812;48.960;9.108;2023-03-23T04:54:04;2.23;;;2.00;;
3085;SDS011;52812;48.960;9.108;2023-03-23T04:56:29;2.00;;;1.80;;
3085;SDS011;52812;48.960;9.108;2023-03-23T04:58:55;2.20;;;2.00;;
3085;SDS011;52812;48.960;9.108;2023-03-23T05:01:20;1.87;;;1.77;;
3085;SDS011;52812;48.960;9.108;2023-03-23T05:03:46;2.63;;;2.07;;
3085;SDS011;52812;48.960;9.108;2023-03-23T05:06:11;2.53;;;2.33;;
3085;SDS011;52812;48.960;9.108;2023-03-23T05:08:37;2.80;;;2.10;;
3085;SDS011;52812;48.960;9.108;2023-03-23T05:11:04;2.93;;;2.30;;
3085;SDS011;52812;48.960;9.108;2023-03-23T05:13:30;3.40;;;2.40;;
3085;SDS011;52812;48.960;9.108;2023-03-23T05:15:57;2.87;;;2.40;;
3085;SDS011;52812;48.960;9.108;2023-03-23T05:18:23;2.53;;;2.10;;
3085;SDS011;52812;48.960;9.108;2023-03-23T05:20:48;3.70;;;2.20;;
3085;SDS011;52812;48.960;9.108;2023-03-23T05:23:17;3.33;;;2.77;;
3085;SDS011;52812;48.960;9.108;2023-03-23T05:25:51;2.90;;;2.50;;
3085;SDS011;52812;48.960;9.108;2023-03-23T05:28:18;2.80;;;2.50;;
3085;SDS011;52812;48.960;9.108;2023-03-23T05:30:43;4.67;;;3.40;;
3085;SDS011;52812;48.960;9.108;2023-03-23T05:33:09;5.80;;;3.80;;
3085;SDS011;52812;48.960;9.108;2023-03-23T05:35:34;2.83;;;2.57;;
3085;SDS011;52812;48.960;9.108;2023-03-23T05:38:01;3.20;;;2.40;;
3085;SDS011;52812;48.960;9.108;2023-03-23T05:40:28;2.40;;;2.20;;
3085;SDS011;52812;48.960;9.108;2023-03-23T05:42:55;2.93;;;2.20;;
3085;SDS011;52812;48.960;9.108;2023-03-23T05:45:23;2.20;;;2.00;;
3085;SDS011;52812;48.960;9.108;2023-03-23T05:47:49;2.83;;;2.20;;
3085;SDS011;52812;48.960;9.108;2023-03-23T05:50:15;2.33;;;2.10;;
3085;SDS011;52812;48.960;9.108;2023-03-23T05:52:41;2.53;;;2.13;;
3085;SDS011;52812;48.960;9.108;2023-03-23T05:55:07;2.43;;;2.03;;
3085;SDS011;52812;48.960;9.108;2023-03-23T05:57:33;2.20;;;2.00;;
3085;SDS011;52812;48.960;9.108;2023-03-23T05:59:59;3.30;;;2.20;;
3085;SDS011;52812;48.960;9.108;2023-03-23T06:02:30;2.17;;;1.97;;
3085;SDS011;52812;48.960;9.108;2023-03-23T06:04:56;1.90;;;1.80;;
3085;SDS011;52812;48.960;9.108;2023-03-23T06:07:23;3.23;;;2.30;;
3085;SDS011;52812;48.960;9.108;2023-03-23T06:09:49;4.53;;;2.03;;
3085;SDS011;52812;48.960;9.108;2023-03-23T06:12:16;2.43;;;2.00;;
3085;SDS011;52812;48.960;9.108;2023-03-23T06:14:45;3.33;;;2.60;;
3085;SDS011;52812;48.960;9.108;2023-03-23T06:17:11;2.33;;;2.13;;
3085;SDS011;52812;48.960;9.108;2023-03-23T06:19:37;2.67;;;2.30;;
3085;SDS011;52812;48.960;9.108;2023-03-23T06:22:03;2.37;;;2.17;;
3085;SDS011;52812;48.960;9.108;2023-03-23T06:24:30;3.00;;;2.30;;
3085;SDS011;52812;48.960;9.108;2023-03-23T06:26:57;2.47;;;2.17;;
3085;SDS011;52812;48.960;9.108;2023-03-23T06:29:23;2.60;;;2.10;;
3085;SDS011;52812;48.960;9.108;2023-03-23T06:31:50;4.53;;;2.60;;
3085;SDS011;52812;48.960;9.108;2023-03-23T06:34:19;2.90;;;2.23;;
3085;SDS011;52812;48.960;9.108;2023-03-23T06:36:45;3.07;;;2.77;;
3085;SDS011;52812;48.960;9.108;2023-03-23T06:39:11;3.53;;;2.57;;
3085;SDS011;52812;48.960;9.108;2023-03-23T06:41:39;2.50;;;2.17;;
3085;SDS011;52812;48.960;9.108;2023-03-23T06:44:04;3.23;;;2.20;;
3085;SDS011;52812;48.960;9.108;2023-03-23T06:46:31;3.13;;;2.77;;
3085;SDS011;52812;48.960;9.108;2023-03-23T06:48:56;4.13;;;2.40;;
3085;SDS011;52812;48.960;9.108;2023-03-23T06:51:22;3.53;;;2.53;;
3085;SDS011;52812;48.960;9.108;2023-03-23T06:53:49;3.00;;;2.57;;
3085;SDS011;52812;48.960;9.108;2023-03-23T06:56:14;3.90;;;2.30;;
3085;SDS011;52812;48.960;9.108;2023-03-23T06:58:40;3.07;;;2.60;;
3085;SDS011;52812;48.960;9.108;2023-03-23T07:01:07;2.70;;;2.50;;
3085;SDS011;52812;48.960;9.108;2023-03-23T07:03:33;5.17;;;3.10;;
3085;SDS011;52812;48.960;9.108;2023-03-23T07:05:59;2.60;;;2.40;;
3085;SDS011;52812;48.960;9.108;2023-03-23T07:08:24;2.90;;;2.60;;
3085;SDS011;52812;48.960;9.108;2023-03-23T07:10:51;3.90;;;2.57;;
3085;SDS011;52812;48.960;9.108;2023-03-23T07:13:17;4.00;;;2.77;;
3085;SDS011;52812;48.960;9.108;2023-03-23T07:15:43;5.40;;;2.70;;
3085;SDS011;52812;48.960;9.108;2023-03-23T07:18:09;4.40;;;2.50;;
3085;SDS011;52812;48.960;9.108;2023-03-23T07:20:35;2.53;;;2.33;;
3085;SDS011;52812;48.960;9.108;2023-03-23T07:23:01;3.10;;;2.80;;
3085;SDS011;52812;48.960;9.108;2023-03-23T07:25:27;3.63;;;3.10;;
3085;SDS011;52812;48.960;9.108;2023-03-23T07:27:53;5.80;;;3.03;;
3085;SDS011;52812;48.960;9.108;2023-03-23T07:30:18;4.13;;;2.83;;
3085;SDS011;52812;48.960;9.108;2023-03-23T07:32:44;4.33;;;3.00;;
3085;SDS011;52812;48.960;9.108;2023-03-23T07:35:10;4.47;;;3.00;;
3085;SDS011;52812;48.960;9.108;2023-03-23T07:37:36;2.83;;;2.50;;
3085;SDS011;52812;48.960;9.108;2023-03-23T07:40:02;3.00;;;2.50;;
3085;SDS011;52812;48.960;9.108;2023-03-23T07:42:40;3.90;;;2.57;;
3085;SDS011;52812;48.960;9.108;2023-03-23T07:45:10;3.00;;;2.70;;
3085;SDS011;52812;48.960;9.108;2023-03-23T07:47:37;2.63;;;2.43;;
3085;SDS011;52812;48.960;9.108;2023-03-23T07:50:03;3.20;;;2.40;;
3085;SDS011;52812;48.960;9.108;2023-03-23T07:52:29;2.97;;;2.50;;
3085;SDS011;52812;48.960;9.108;2023-03-23T07:54:56;2.43;;;2.10;;
3085;SDS011;52812;48.960;9.108;2023-03-23T07:57:21;2.63;;;2.43;;
3085;SDS011;52812;48.960;9.108;2023-03-23T07:59:47;2.60;;;2.20;;
3085;SDS011;52812;48.960;9.108;2023-03-23T08:02:13;3.50;;;2.47;;
3085;SDS011;52812;48.960;9.108;2023-03-23T08:04:38;2.57;;;2.37;;
3085;SDS011;52812;48.960;9.108;2023-03-23T08:07:04;3.30;;;2.80;;
3085;SDS011;52812;48.960;9.108;2023-03-23T08:09:30;3.17;;;2.10;;
3085;SDS011;52812;48.960;9.108;2023-03-23T08:11:56;3.43;;;2.40;;
3085;SDS011;52812;48.960;9.108;2023-03-23T08:14:22;2.53;;;2.33;;
3085;SDS011;52812;48.960;9.108;2023-03-23T08:16:52;3.30;;;2.60;;
3085;SDS011;52812;48.960;9.108;2023-03-23T08:19:20;2.43;;;2.23;;
3085;SDS011;52812;48.960;9.108;2023-03-23T08:21:45;3.27;;;2.20;;
3085;SDS011;52812;48.960;9.108;2023-03-23T08:24:11;3.60;;;2.57;;
3085;SDS011;52812;48.960;9.108;2023-03-23T08:26:38;3.73;;;2.80;;
3085;SDS011;52812;48.960;9.108;2023-03-23T08:29:04;3.10;;;2.50;;
3085;SDS011;52812;48.960;9.108;2023-03-23T08:31:30;4.03;;;2.60;;
3085;SDS011;52812;48.960;9.108;2023-03-23T08:33:59;3.37;;;2.60;;
3085;SDS011;52812;48.960;9.108;2023-03-23T08:36:25;2.70;;;2.50;;
3085;SDS011;52812;48.960;9.108;2023-03-23T08:38:53;3.13;;;2.50;;
3085;SDS011;52812;48.960;9.108;2023-03-23T08:41:18;3.30;;;2.50;;
3085;SDS011;52812;48.960;9.108;2023-03-23T08:43:44;2.60;;;2.40;;
3085;SDS011;52812;48.960;9.108;2023-03-23T08:46:11;2.57;;;2.30;;
3085;SDS011;52812;48.960;9.108;2023-03-23T08:48:37;2.40;;;2.17;;
3085;SDS011;52812;48.960;9.108;2023-03-23T08:51:03;2.90;;;2.67;;
3085;SDS011;52812;48.960;9.108;2023-03-23T08:53:30;4.17;;;2.77;;
3085;SDS011;52812;48.960;9.108;2023-03-23T08:56:02;2.47;;;2.20;;
3085;SDS011;52812;48.960;9.108;2023-03-23T08:58:28;3.10;;;2.70;;
3085;SDS011;52812;48.960;9.108;2023-03-23T09:00:54;2.63;;;2.43;;
3085;SDS011;52812;48.960;9.108;2023-03-23T09:03:20;2.93;;;2.30;;
3085;SDS011;52812;48.960;9.108;2023-03-23T09:05:45;2.93;;;2.37;;
3085;SDS011;52812;48.960;9.108;2023-03-23T09:08:11;5.40;;;2.30;;
3085;SDS011;52812;48.960;9.108;2023-03-23T09:10:37;2.60;;;2.40;;
3085;SDS011;52812;48.960;9.108;2023-03-23T09:13:04;2.67;;;2.37;;
3085;SDS011;52812;48.960;9.108;2023-03-23T09:15:31;2.57;;;2.30;;
3085;SDS011;52812;48.960;9.108;2023-03-23T09:17:57;3.63;;;2.60;;
3085;SDS011;52812;48.960;9.108;2023-03-23T09:20:25;3.57;;;2.40;;
3085;SDS011;52812;48.960;9.108;2023-03-23T09:22:53;2.20;;;2.00;;
3085;SDS011;52812;48.960;9.108;2023-03-23T09:25:21;2.50;;;2.03;;
3085;SDS011;52812;48.960;9.108;2023-03-23T09:27:50;2.50;;;2.27;;
3085;SDS011;52812;48.960;9.108;2023-03-23T09:30:18;2.37;;;2.17;;
3085;SDS011;52812;48.960;9.108;2023-03-23T09:32:45;3.10;;;2.30;;
3085;SDS011;52812;48.960;9.108;2023-03-23T09:35:13;2.20;;;2.00;;
3085;SDS011;52812;48.960;9.108;2023-03-23T09:37:41;4.07;;;2.10;;
3085;SDS011;52812;48.960;9.108;2023-03-23T09:40:13;2.00;;;1.70;;
3085;SDS011;52812;48.960;9.108;2023-03-23T09:42:53;3.43;;;2.00;;
3085;SDS011;52812;48.960;9.108;2023-03-23T09:50:29;1.77;;;1.67;;
3085;SDS011;52812;48.960;9.108;2023-03-23T09:53:02;2.20;;;2.00;;
3085;SDS011;52812;48.960;9.108;2023-03-23T09:55:44;2.23;;;2.00;;
3085;SDS011;52812;48.960;9.108;2023-03-23T09:58:22;1.73;;;1.63;;
3085;SDS011;52812;48.960;9.108;2023-03-23T10:03:25;2.60;;;1.80;;
3085;SDS011;52812;48.960;9.108;2023-03-23T10:05:55;2.10;;;1.80;;
3085;SDS011;52812;48.960;9.108;2023-03-23T10:08:22;2.50;;;1.50;;
3085;SDS011;52812;48.960;9.108;2023-03-23T10:10:58;2.23;;;1.77;;
3085;SDS011;52812;48.960;9.108;2023-03-23T10:19:27;2.03;;;1.83;;
3085;SDS011;52812;48.960;9.108;2023-03-23T10:22:04;2.80;;;1.77;;
3085;SDS011;52812;48.960;9.108;2023-03-23T10:24:35;2.83;;;1.90;;
3085;SDS011;52812;48.960;9.108;2023-03-23T10:29:57;2.40;;;1.93;;
3085;SDS011;52812;48.960;9.108;2023-03-23T10:35:39;2.70;;;2.07;;
3085;SDS011;52812;48.960;9.108;2023-03-23T10:38:15;4.43;;;1.80;;
3085;SDS011;52812;48.960;9.108;2023-03-23T10:40:48;2.00;;;1.77;;
3085;SDS011;52812;48.960;9.108;2023-03-23T10:43:23;3.30;;;1.80;;
3085;SDS011;52812;48.960;9.108;2023-03-23T10:45:55;2.00;;;1.70;;
3085;SDS011;52812;48.960;9.108;2023-03-23T10:48:37;1.97;;;1.67;;
3085;SDS011;52812;48.960;9.108;2023-03-23T10:51:04;1.67;;;1.50;;
3085;SDS011;52812;48.960;9.108;2023-03-23T10:53:35;2.00;;;1.80;;
3085;SDS011;52812;48.960;9.108;2023-03-23T10:56:03;2.30;;;1.70;;
3085;SDS011;52812;48.960;9.108;2023-03-23T10:58:30;2.63;;;1.87;;
3085;SDS011;52812;48.960;9.108;2023-03-23T11:00:58;2.00;;;1.80;;
3085;SDS011;52812;48.960;9.108;2023-03-23T11:03:28;2.27;;;1.90;;
3085;SDS011;52812;48.960;9.108;2023-03-23T11:06:08;2.13;;;1.93;;
3085;SDS011;52812;48.960;9.108;2023-03-23T11:08:36;1.73;;;1.63;;
3085;SDS011;52812;48.960;9.108;2023-03-23T11:11:16;2.10;;;1.90;;
3085;SDS011;52812;48.960;9.108;2023-03-23T11:13:44;1.90;;;1.80;;
3085;SDS011;52812;48.960;9.108;2023-03-23T11:16:33;2.00;;;1.70;;
3085;SDS011;52812;48.960;9.108;2023-03-23T11:18:59;2.13;;;1.70;;
3085;SDS011;52812;48.960;9.108;2023-03-23T11:21:36;2.60;;;1.93;;
3085;SDS011;52812;48.960;9.108;2023-03-23T11:24:03;2.53;;;2.00;;
3085;SDS011;52812;48.960;9.108;2023-03-23T11:26:31;2.07;;;1.80;;
3085;SDS011;52812;48.960;9.108;2023-03-23T11:34:25;2.47;;;2.00;;
3085;SDS011;52812;48.960;9.108;2023-03-23T11:37:09;2.30;;;1.90;;
3085;SDS011;52812;48.960;9.108;2023-03-23T11:45:22;2.33;;;1.87;;
3085;SDS011;52812;48.960;9.108;2023-03-23T11:51:01;2.70;;;2.13;;
3085;SDS011;52812;48.960;9.108;2023-03-23T11:56:20;2.23;;;2.00;;
3085;SDS011;52812;48.960;9.108;2023-03-23T11:58:55;2.30;;;1.87;;
3085;SDS011;52812;48.960;9.108;2023-03-23T12:01:34;4.90;;;2.10;;
3085;SDS011;52812;48.960;9.108;2023-03-23T12:10:18;2.40;;;2.20;;
3085;SDS011;52812;48.960;9.108;2023-03-23T12:13:08;3.03;;;2.20;;
3085;SDS011;52812;48.960;9.108;2023-03-23T12:15:47;3.47;;;2.37;;
3085;SDS011;52812;48.960;9.108;2023-03-23T12:23:57;5.00;;;3.60;;
3085;SDS011;52812;48.960;9.108;2023-03-23T12:26:25;6.13;;;2.40;;
3085;SDS011;52812;48.960;9.108;2023-03-23T12:31:49;3.17;;;2.17;;
3085;SDS011;52812;48.960;9.108;2023-03-23T12:37:22;2.53;;;2.10;;
3085;SDS011;52812;48.960;9.108;2023-03-23T12:42:50;2.33;;;2.13;;
3085;SDS011;52812;48.960;9.108;2023-03-23T12:48:25;2.77;;;2.20;;
3085;SDS011;52812;48.960;9.108;2023-03-23T12:51:02;2.83;;;2.30;;
3085;SDS011;52812;48.960;9.108;2023-03-23T12:53:54;5.57;;;2.40;;
3085;SDS011;52812;48.960;9.108;2023-03-23T12:56:29;3.10;;;2.40;;
3085;SDS011;52812;48.960;9.108;2023-03-23T12:59:18;2.73;;;2.47;;
3085;SDS011;52812;48.960;9.108;2023-03-23T13:01:59;2.40;;;2.13;;
3085;SDS011;52812;48.960;9.108;2023-03-23T13:04:32;2.63;;;2.40;;
3085;SDS011;52812;48.960;9.108;2023-03-23T13:07:02;3.10;;;2.60;;
3085;SDS011;52812;48.960;9.108;2023-03-23T13:09:50;2.70;;;2.40;;
3085;SDS011;52812;48.960;9.108;2023-03-23T13:12:18;3.23;;;2.53;;
3085;SDS011;52812;48.960;9.108;2023-03-23T13:17:46;5.00;;;2.87;;
3085;SDS011;52812;48.960;9.108;2023-03-23T13:26:01;4.03;;;2.63;;
3085;SDS011;52812;48.960;9.108;2023-03-23T13:28:34;3.20;;;2.60;;
3085;SDS011;52812;48.960;9.108;2023-03-23T13:31:16;3.23;;;2.60;;
3085;SDS011;52812;48.960;9.108;2023-03-23T13:33:46;2.90;;;2.53;;
3085;SDS011;52812;48.960;9.108;2023-03-23T13:36:15;2.60;;;2.17;;
3085;SDS011;52812;48.960;9.108;2023-03-23T13:38:51;4.50;;;2.60;;
3085;SDS011;52812;48.960;9.108;2023-03-23T13:41:17;3.80;;;2.80;;
3085;SDS011;52812;48.960;9.108;2023-03-23T13:43:46;2.57;;;2.30;;
3085;SDS011;52812;48.960;9.108;2023-03-23T13:54:20;3.10;;;2.47;;
3085;SDS011;52812;48.960;9.108;2023-03-23T14:01:54;3.03;;;2.40;;
3085;SDS011;52812;48.960;9.108;2023-03-23T14:04:20;2.93;;;2.70;;
3085;SDS011;52812;48.960;9.108;2023-03-23T14:06:48;3.07;;;2.40;;
3085;SDS011;52812;48.960;9.108;2023-03-23T14:09:16;2.90;;;2.23;;
3085;SDS011;52812;48.960;9.108;2023-03-23T14:11:58;3.00;;;2.50;;
3085;SDS011;52812;48.960;9.108;2023-03-23T14:14:33;2.60;;;2.40;;
3085;SDS011;52812;48.960;9.108;2023-03-23T14:17:15;2.73;;;2.53;;
3085;SDS011;52812;48.960;9.108;2023-03-23T14:19:53;3.77;;;2.50;;
3085;SDS011;52812;48.960;9.108;2023-03-23T14:24:51;2.60;;;2.40;;
3085;SDS011;52812;48.960;9.108;2023-03-23T14:27:23;2.73;;;2.53;;
3085;SDS011;52812;48.960;9.108;2023-03-23T14:29:59;3.97;;;2.80;;
3085;SDS011;52812;48.960;9.108;2023-03-23T14:32:27;3.63;;;2.60;;
3085;SDS011;52812;48.960;9.108;2023-03-23T14:34:55;4.00;;;2.90;;
3085;SDS011;52812;48.960;9.108;2023-03-23T14:37:21;3.40;;;2.60;;
3085;SDS011;52812;48.960;9.108;2023-03-23T14:39:48;4.80;;;3.43;;
3085;SDS011;52812;48.960;9.108;2023-03-23T14:42:30;3.80;;;3.20;;
3085;SDS011;52812;48.960;9.108;2023-03-23T14:44:59;3.10;;;2.80;;
3085;SDS011;52812;48.960;9.108;2023-03-23T14:47:27;2.87;;;2.57;;
3085;SDS011;52812;48.960;9.108;2023-03-23T14:49:56;3.70;;;2.70;;
3085;SDS011;52812;48.960;9.108;2023-03-23T14:52:33;3.37;;;2.37;;
3085;SDS011;52812;48.960;9.108;2023-03-23T14:55:17;15.73;;;8.60;;
3085;SDS011;52812;48.960;9.108;2023-03-23T14:57:47;5.03;;;3.20;;
3085;SDS011;52812;48.960;9.108;2023-03-23T15:02:40;4.60;;;4.00;;
3085;SDS011;52812;48.960;9.108;2023-03-23T15:05:10;4.03;;;3.47;;
3085;SDS011;52812;48.960;9.108;2023-03-23T15:07:40;4.30;;;3.60;;
3085;SDS011;52812;48.960;9.108;2023-03-23T15:10:09;3.70;;;3.20;;
3085;SDS011;52812;48.960;9.108;2023-03-23T15:12:43;3.47;;;3.10;;
3085;SDS011;52812;48.960;9.108;2023-03-23T15:15:16;4.93;;;2.70;;
3085;SDS011;52812;48.960;9.108;2023-03-23T15:17:46;3.70;;;3.30;;
3085;SDS011;52812;48.960;9.108;2023-03-23T15:20:46;4.47;;;3.27;;
3085;SDS011;52812;48.960;9.108;2023-03-23T15:23:15;4.37;;;3.37;;
3085;SDS011;52812;48.960;9.108;2023-03-23T15:25:52;4.90;;;3.40;;
3085;SDS011;52812;48.960;9.108;2023-03-23T15:28:20;4.63;;;3.40;;
3085;SDS011;52812;48.960;9.108;2023-03-23T15:30:53;6.60;;;3.80;;
3085;SDS011;52812;48.960;9.108;2023-03-23T15:33:22;3.90;;;3.40;;
3085;SDS011;52812;48.960;9.108;2023-03-23T15:35:55;4.40;;;3.23;;
3085;SDS011;52812;48.960;9.108;2023-03-23T15:38:22;4.83;;;3.40;;
3085;SDS011;52812;48.960;9.108;2023-03-23T15:40:55;4.43;;;3.43;;
3085;SDS011;52812;48.960;9.108;2023-03-23T15:43:24;3.53;;;3.00;;
3085;SDS011;52812;48.960;9.108;2023-03-23T15:48:30;3.23;;;2.70;;
3085;SDS011;52812;48.960;9.108;2023-03-23T15:50:57;3.17;;;2.87;;
3085;SDS011;52812;48.960;9.108;2023-03-23T15:53:30;4.40;;;3.43;;
3085;SDS011;52812;48.960;9.108;2023-03-23T15:55:59;2.90;;;2.53;;
3085;SDS011;52812;48.960;9.108;2023-03-23T15:58:26;3.57;;;2.80;;
3085;SDS011;52812;48.960;9.108;2023-03-23T16:00:52;4.27;;;2.93;;
3085;SDS011;52812;48.960;9.108;2023-03-23T16:03:20;5.17;;;3.13;;
3085;SDS011;52812;48.960;9.108;2023-03-23T16:05:58;4.47;;;2.77;;
3085;SDS011;52812;48.960;9.108;2023-03-23T16:08:27;3.40;;;2.83;;
3085;SDS011;52812;48.960;9.108;2023-03-23T16:10:52;3.70;;;3.13;;
3085;SDS011;52812;48.960;9.108;2023-03-23T16:13:18;4.47;;;3.13;;
3085;SDS011;52812;48.960;9.108;2023-03-23T16:15:43;3.80;;;2.90;;
3085;SDS011;52812;48.960;9.108;2023-03-23T16:18:16;2.97;;;2.63;;
3085;SDS011;52812;48.960;9.108;2023-03-23T16:20:43;3.47;;;3.17;;
3085;SDS011;52812;48.960;9.108;2023-03-23T16:23:09;2.57;;;2.37;;
3085;SDS011;52812;48.960;9.108;2023-03-23T16:25:35;4.13;;;2.90;;
3085;SDS011;52812;48.960;9.108;2023-03-23T16:28:00;4.00;;;3.03;;
3085;SDS011;52812;48.960;9.108;2023-03-23T16:30:27;4.00;;;3.17;;
3085;SDS011;52812;48.960;9.108;2023-03-23T16:32:56;5.50;;;3.13;;
3085;SDS011;52812;48.960;9.108;2023-03-23T16:35:22;5.17;;;3.10;;
3085;SDS011;52812;48.960;9.108;2023-03-23T16:37:51;3.40;;;3.10;;
3085;SDS011;52812;48.960;9.108;2023-03-23T16:40:19;4.67;;;3.30;;
3085;SDS011;52812;48.960;9.108;2023-03-23T16:42:45;3.67;;;3.30;;
3085;SDS011;52812;48.960;9.108;2023-03-23T16:45:12;4.53;;;3.30;;
3085;SDS011;52812;48.960;9.108;2023-03-23T16:47:38;3.20;;;2.90;;
3085;SDS011;52812;48.960;9.108;2023-03-23T16:50:05;7.00;;;3.73;;
3085;SDS011;52812;48.960;9.108;2023-03-23T16:52:35;4.40;;;3.90;;
3085;SDS011;52812;48.960;9.108;2023-03-23T16:55:00;4.70;;;3.47;;
3085;SDS011;52812;48.960;9.108;2023-03-23T16:57:26;3.73;;;2.90;;
3085;SDS011;52812;48.960;9.108;2023-03-23T16:59:51;4.10;;;3.70;;
3085;SDS011;52812;48.960;9.108;2023-03-23T17:02:17;5.60;;;3.67;;
3085;SDS011;52812;48.960;9.108;2023-03-23T17:04:44;4.40;;;3.93;;